»·PEaware :: AAL1977 KSAN-KPHX

AAL1977 :: KSAN-KPHX

FLIGHT INFORMATION

Flight Status: Arrived
Operator:
American Airlines
More flights by this operator :: More flights under this callsign
Pilot: Ben L. (6391)
Aircraft: AIRBUS A320
(A320)
More flights by this aircraft type
Origin: KSAN San Diego Intl-Lindbergh
United States
Destination: KPHX Phoenix Sky Harbor Intl
United States
More flights between these airports :: More routes between these airports
Route: +ZZOOO1 IPL J18 BZA HOGGZ HYDRR1
File this flight plan on PilotEdge
Remarks:
Altitude:
(Current/Filed)
35,000ft
Speed:
(Current/Filed)
450kts
Departed: 09-Jan-18 07:23 PM
Arrived: 09-Jan-18 08:19 PM
Distance/Time
Traveled:
264nm/0:56
Distance/Time
To Go:
Arrived

Flight Plot

Page will automatically refresh every two minutes.


Map Options




Map Legend


Flown Route
Filed Route
Departure Airport
Arrival Airport
Navaid (VOR, NDB)
Fix

Horizontal Profiles

Position Reports

Time Latitude Longitude Heading Altitude Ground
Speed
09-Jan-18 19:13 32.732440 -117.201494 94 26ft 0kts
09-Jan-18 19:14 32.732440 -117.201494 94 26ft 0kts
09-Jan-18 19:15 32.732440 -117.201494 94 26ft 0kts
09-Jan-18 19:16 32.732440 -117.201494 94 26ft 0kts
09-Jan-18 19:17 32.732440 -117.201494 94 26ft 0kts
09-Jan-18 19:18 32.732440 -117.201494 94 26ft 0kts
09-Jan-18 19:19 32.732440 -117.201494 94 26ft 0kts
09-Jan-18 19:20 32.732440 -117.201494 94 26ft 0kts
09-Jan-18 19:21 32.732634 -117.201947 119 26ft 1kts
09-Jan-18 19:22 32.732476 -117.202194 1 26ft 1kts
09-Jan-18 19:23 32.732453 -117.202195 1 26ft 0kts
09-Jan-18 19:24 32.734095 -117.202518 5 26ft 24kts
09-Jan-18 19:25 32.733292 -117.192862 106 26ft 37kts
09-Jan-18 19:26 32.730346 -117.180738 109 26ft 35kts
09-Jan-18 19:27 32.729754 -117.176042 50 26ft 12kts
09-Jan-18 19:28 32.730358 -117.176502 286 26ft 0kts
09-Jan-18 19:29 32.739245 -117.209346 285 1454ft 162kts
09-Jan-18 19:30 32.753017 -117.264712 281 4860ft 202kts
09-Jan-18 19:31 32.726462 -117.321756 192 7987ft 277kts
09-Jan-18 19:32 32.655686 -117.272705 141 10963ft 347kts
09-Jan-18 19:33 32.623228 -117.160899 93 13179ft 398kts
09-Jan-18 19:34 32.612155 -117.030879 95 15724ft 417kts
09-Jan-18 19:35 32.604351 -116.904506 78 16046ft 366kts
09-Jan-18 19:36 32.625336 -116.798156 76 16038ft 317kts
09-Jan-18 19:37 32.637799 -116.696241 84 16056ft 316kts
09-Jan-18 19:38 32.668732 -116.603470 51 17434ft 321kts
09-Jan-18 19:39 32.709033 -116.511252 93 20303ft 338kts
09-Jan-18 19:40 32.696145 -116.401911 101 22877ft 344kts
09-Jan-18 19:41 32.681258 -116.289016 102 23006ft 390kts
09-Jan-18 19:42 32.670225 -116.151505 74 22938ft 465kts
09-Jan-18 19:43 32.701861 -116.006522 82 22950ft 465kts
09-Jan-18 19:44 32.717154 -115.858164 84 22950ft 465kts
09-Jan-18 19:45 32.730865 -115.709107 84 22949ft 465kts
09-Jan-18 19:46 32.744383 -115.558941 84 23558ft 470kts
09-Jan-18 19:47 32.751407 -115.403779 89 25354ft 480kts
09-Jan-18 19:48 32.755082 -115.247263 89 26830ft 490kts
09-Jan-18 19:49 32.758638 -115.087191 92 27107ft 496kts
09-Jan-18 19:50 32.762022 -114.925064 95 28732ft 499kts
09-Jan-18 19:51 32.765212 -114.760400 95 29906ft 510kts
09-Jan-18 19:52 32.768262 -114.593761 96 30899ft 511kts
09-Jan-18 19:53 32.770588 -114.427553 96 30902ft 510kts
09-Jan-18 19:54 32.772628 -114.268402 97 30653ft 506kts
09-Jan-18 19:55 32.774510 -114.107313 96 28303ft 495kts
09-Jan-18 19:56 32.788181 -113.949291 88 26237ft 483kts
09-Jan-18 19:57 32.804895 -113.796027 88 24900ft 475kts
09-Jan-18 19:58 32.841550 -113.654278 51 24897ft 459kts
09-Jan-18 19:59 32.923494 -113.544450 49 24360ft 459kts
09-Jan-18 20:00 33.003687 -113.436401 50 22554ft 444kts
09-Jan-18 20:01 33.079026 -113.334574 50 19945ft 413kts
09-Jan-18 20:02 33.151152 -113.236986 51 17951ft 404kts
09-Jan-18 20:03 33.221707 -113.141257 50 15963ft 395kts
09-Jan-18 20:04 33.283165 -113.057702 50 15171ft 389kts
09-Jan-18 20:05 33.337952 -112.960520 86 13996ft 350kts
09-Jan-18 20:06 33.340802 -112.851314 97 12494ft 327kts
09-Jan-18 20:07 33.339145 -112.747499 103 10739ft 319kts
09-Jan-18 20:08 33.333893 -112.636656 97 10137ft 340kts
09-Jan-18 20:09 33.330521 -112.534129 99 10976ft 302kts
09-Jan-18 20:10 33.326745 -112.436225 99 11070ft 300kts
09-Jan-18 20:11 33.323124 -112.341529 96 11035ft 301kts
09-Jan-18 20:12 33.332297 -112.245328 90 10273ft 295kts
09-Jan-18 20:13 33.341633 -112.153083 90 9031ft 283kts
09-Jan-18 20:14 33.347481 -112.068169 98 8602ft 247kts
09-Jan-18 20:15 33.346343 -111.987822 98 7546ft 244kts
09-Jan-18 20:16 33.345627 -111.907644 96 7072ft 243kts
09-Jan-18 20:17 33.346202 -111.828308 96 6376ft 239kts
09-Jan-18 20:18 33.350891 -111.750057 63 5327ft 252kts
09-Jan-18 20:19 33.408558 -111.739300 302 5060ft 219kts
09-Jan-18 20:20 33.435888 -111.796698 283 4285ft 189kts
09-Jan-18 20:21 33.441948 -111.851007 263 3947ft 150kts
09-Jan-18 20:22 33.441024 -111.898417 257 3141ft 145kts
09-Jan-18 20:23 33.440926 -111.944691 260 2006ft 137kts
09-Jan-18 20:24 33.440922 -111.989951 260 1222ft 134kts
09-Jan-18 20:25 33.440147 -112.010907 202 1143ft 10kts
09-Jan-18 20:26 33.439214 -112.011484 214 1143ft 9kts

Navigation Log

Ident Type
1. KSAN Airport
2. JETTI Fix
3. ZZOOO Fix
4. JORRJ Fix
5. GRIDR Fix
6. BLUZE Fix
7. IPL Navaid
8. IPL Navaid
9. HEEDS Fix
10. BZA Navaid
11. HOGGZ Fix
12. JUDTH Fix
13. RKDAM Fix
14. HYDRR Fix
15. GEELA Fix
16. PUNNT Fix
17. TEICH Fix
18. TESLE Fix
19. FALGO Fix
20. CAGOR Fix
21. FOWLE Fix
22. KPHX Airport